createdAt,value
2023-02-19T00:01:39.703Z,19.25
2023-02-19T00:04:11.509Z,23.98
2023-02-19T00:06:38.676Z,22.88
2023-02-19T00:09:06.338Z,22.35
2023-02-19T00:11:35.356Z,18.73
2023-02-19T00:14:03.721Z,20.85
2023-02-19T00:16:32.265Z,20.00
2023-02-19T00:19:01.104Z,20.88
2023-02-19T00:21:29.371Z,17.48
2023-02-19T00:24:02.513Z,21.65
2023-02-19T00:26:29.927Z,24.05
2023-02-19T00:28:58.192Z,21.70
2023-02-19T00:31:29.485Z,16.25
2023-02-19T00:33:59.908Z,20.20
2023-02-19T00:36:28.476Z,21.05
2023-02-19T00:38:55.840Z,18.92
2023-02-19T00:41:24.359Z,19.70
2023-02-19T00:43:54.326Z,18.65
2023-02-19T00:46:22.593Z,18.45
2023-02-19T00:48:50.138Z,17.25
2023-02-19T00:51:17.348Z,17.25
2023-02-19T00:53:44.575Z,20.33
2023-02-19T00:56:12.390Z,20.10
2023-02-19T00:58:39.968Z,19.23
2023-02-19T01:01:10.604Z,18.90
2023-02-19T01:03:39.133Z,18.20
2023-02-19T01:06:08.352Z,20.88
2023-02-19T01:08:35.692Z,21.75
2023-02-19T01:11:04.453Z,19.30
2023-02-19T01:13:31.645Z,20.58
2023-02-19T01:16:13.748Z,17.80
2023-02-19T01:18:41.363Z,19.92
2023-02-19T01:21:11.758Z,22.30
2023-02-19T01:23:39.934Z,17.77
2023-02-19T01:26:09.186Z,21.58
2023-02-19T01:28:36.361Z,21.05
2023-02-19T01:31:05.716Z,22.83
2023-02-19T01:33:34.067Z,21.42
2023-02-19T01:36:04.464Z,21.17
2023-02-19T01:38:31.665Z,22.27
2023-02-19T01:41:01.942Z,20.00
2023-02-19T01:43:29.645Z,20.90
2023-02-19T01:45:56.738Z,19.58
2023-02-19T01:48:30.044Z,22.20
2023-02-19T01:51:04.284Z,20.50
2023-02-19T01:53:36.745Z,19.30
2023-02-19T01:56:05.039Z,18.60
2023-02-19T01:58:35.371Z,20.02
2023-02-19T02:01:05.467Z,20.08
2023-02-19T02:03:33.552Z,19.75
2023-02-19T02:06:19.826Z,20.38
2023-02-19T02:09:06.372Z,21.63
2023-02-19T02:11:33.587Z,21.45
2023-02-19T02:14:01.069Z,19.65
2023-02-19T02:16:40.090Z,20.70
2023-02-19T02:19:31.594Z,16.50
2023-02-19T02:22:12.661Z,20.00
2023-02-19T02:24:57.360Z,24.63
2023-02-19T02:27:44.213Z,19.52
2023-02-19T02:30:18.743Z,16.42
2023-02-19T02:33:00.877Z,20.08
2023-02-19T02:35:38.775Z,18.98
2023-02-19T02:38:10.190Z,18.67
2023-02-19T02:40:39.060Z,20.90
2023-02-19T02:43:06.821Z,21.55
2023-02-19T02:45:37.573Z,21.70
2023-02-19T02:50:27.789Z,17.25
2023-02-19T02:53:20.801Z,18.83
2023-02-19T02:55:51.959Z,22.55
2023-02-19T02:58:22.746Z,25.17
2023-02-19T03:01:14.914Z,20.08
2023-02-19T03:03:45.559Z,22.48
2023-02-19T03:06:17.430Z,18.25
2023-02-19T03:08:52.787Z,20.42
2023-02-19T03:14:36.356Z,19.33
2023-02-19T03:17:30.046Z,21.90
2023-02-19T03:19:59.117Z,24.77
2023-02-19T03:22:31.225Z,23.30
2023-02-19T03:25:22.669Z,22.83
2023-02-19T03:27:51.154Z,19.30
2023-02-19T03:30:25.612Z,20.75
2023-02-19T03:32:57.613Z,19.13
2023-02-19T03:35:35.146Z,24.83
2023-02-19T03:38:18.841Z,21.45
2023-02-19T03:41:12.213Z,20.48
2023-02-19T03:44:00.278Z,18.70
2023-02-19T03:47:06.293Z,22.02
2023-02-19T03:49:54.937Z,23.98
2023-02-19T03:52:40.295Z,24.77
2023-02-19T03:55:14.728Z,19.52
2023-02-19T03:58:06.190Z,21.27
2023-02-19T04:00:41.817Z,20.20
2023-02-19T04:03:20.406Z,18.98
2023-02-19T04:05:53.483Z,20.42
2023-02-19T04:08:24.240Z,33.20
2023-02-19T04:10:53.578Z,21.88
2023-02-19T04:13:26.684Z,20.50
2023-02-19T04:15:57.780Z,23.58
2023-02-19T04:18:29.573Z,22.02
2023-02-19T04:20:57.840Z,20.23
2023-02-19T04:23:29.384Z,20.05
2023-02-19T04:26:00.532Z,19.30
2023-02-19T04:28:29.490Z,21.48
2023-02-19T04:30:56.632Z,20.35
2023-02-19T04:33:23.739Z,19.77
2023-02-19T04:35:50.866Z,21.42
2023-02-19T04:38:17.965Z,19.30
2023-02-19T04:40:45.263Z,21.08
2023-02-19T04:43:12.515Z,18.80
2023-02-19T04:45:39.687Z,19.10
2023-02-19T04:48:06.820Z,17.48
2023-02-19T04:50:33.975Z,22.80
2023-02-19T04:53:01.101Z,23.27
2023-02-19T04:55:28.281Z,20.40
2023-02-19T04:57:55.575Z,21.63
2023-02-19T05:00:22.777Z,18.75
2023-02-19T05:02:49.911Z,18.95
2023-02-19T05:05:17.192Z,20.92
2023-02-19T05:07:44.291Z,18.25
2023-02-19T05:10:11.430Z,19.10
2023-02-19T05:12:38.596Z,18.70
2023-02-19T05:15:05.931Z,18.25
2023-02-19T05:17:34.684Z,21.13
2023-02-19T05:20:01.839Z,18.65
2023-02-19T05:22:30.038Z,19.95
2023-02-19T05:24:57.148Z,19.60
2023-02-19T05:27:24.434Z,19.05
2023-02-19T05:29:51.543Z,18.52
2023-02-19T05:32:18.710Z,22.92
2023-02-19T05:34:45.825Z,22.25
2023-02-19T05:37:12.905Z,19.83
2023-02-19T05:39:40.106Z,18.40
2023-02-19T05:42:07.278Z,18.88
2023-02-19T05:44:34.573Z,18.55
2023-02-19T05:47:01.705Z,20.30
2023-02-19T05:49:29.017Z,22.48
2023-02-19T05:51:56.227Z,20.42
2023-02-19T05:54:23.494Z,22.05
2023-02-19T05:56:50.724Z,19.25
2023-02-19T05:59:21.508Z,20.13
2023-02-19T06:01:50.246Z,20.40
2023-02-19T06:04:19.214Z,20.52
2023-02-19T06:06:47.711Z,24.90
2023-02-19T06:09:14.941Z,21.25
2023-02-19T06:11:43.482Z,18.05
2023-02-19T06:14:13.819Z,20.95
2023-02-19T06:16:41.557Z,22.05
2023-02-19T06:19:08.885Z,21.25
2023-02-19T06:21:35.967Z,22.85
2023-02-19T06:24:10.169Z,20.88
2023-02-19T06:26:38.263Z,21.67
2023-02-19T06:29:05.432Z,22.52
2023-02-19T06:31:32.619Z,19.45
2023-02-19T06:33:59.734Z,18.42
2023-02-19T06:36:26.682Z,21.00
2023-02-19T06:38:53.875Z,24.00
2023-02-19T06:41:20.950Z,19.40
2023-02-19T06:43:48.067Z,19.63
2023-02-19T06:46:15.666Z,20.40
2023-02-19T06:48:44.337Z,24.95
2023-02-19T06:51:18.776Z,19.42
2023-02-19T06:53:46.549Z,23.45
2023-02-19T06:56:31.613Z,24.10
2023-02-19T06:59:01.161Z,23.25
2023-02-19T07:01:30.253Z,19.17
2023-02-19T07:03:57.374Z,22.15
2023-02-19T07:06:25.744Z,24.42
2023-02-19T07:08:54.754Z,18.60
2023-02-19T07:11:22.023Z,21.85
2023-02-19T07:13:54.025Z,19.00
2023-02-19T07:16:20.963Z,22.85
2023-02-19T07:18:48.022Z,19.95
2023-02-19T07:21:16.181Z,18.27
2023-02-19T07:23:45.000Z,21.60
2023-02-19T07:26:13.708Z,24.05
2023-02-19T07:28:41.778Z,21.27
2023-02-19T07:31:09.080Z,25.40
2023-02-19T07:33:36.390Z,22.02
2023-02-19T07:36:03.577Z,24.13
2023-02-19T07:38:30.609Z,23.52
2023-02-19T07:41:02.619Z,23.42
2023-02-19T07:43:32.279Z,23.25
2023-02-19T07:45:59.303Z,22.27
2023-02-19T07:48:26.388Z,24.52
2023-02-19T07:50:57.686Z,28.27
2023-02-19T07:53:25.782Z,24.75
2023-02-19T07:55:53.049Z,23.00
2023-02-19T07:58:20.177Z,23.38
2023-02-19T08:00:47.241Z,22.13
2023-02-19T08:03:14.325Z,25.15
2023-02-19T08:05:42.922Z,35.63
2023-02-19T08:08:12.343Z,31.10
2023-02-19T08:10:58.292Z,23.33
2023-02-19T08:13:27.254Z,25.67
2023-02-19T08:16:21.891Z,22.38
2023-02-19T08:18:53.907Z,22.42
2023-02-19T08:21:21.153Z,25.48
2023-02-19T08:23:50.867Z,22.40
2023-02-19T08:26:18.532Z,18.65
2023-02-19T08:28:45.932Z,15.10
2023-02-19T08:31:13.587Z,19.17
2023-02-19T08:33:41.027Z,19.77
2023-02-19T08:36:09.797Z,22.00
2023-02-19T08:38:37.694Z,20.23
2023-02-19T08:41:10.440Z,20.15
2023-02-19T08:43:37.910Z,18.08
2023-02-19T08:46:07.124Z,16.02
2023-02-19T08:48:34.613Z,13.63
2023-02-19T08:51:04.615Z,17.27
2023-02-19T08:53:32.985Z,21.67
2023-02-19T08:56:05.697Z,21.77
2023-02-19T08:58:33.196Z,26.42
2023-02-19T09:01:00.414Z,20.90
2023-02-19T09:03:27.572Z,20.40
2023-02-19T09:05:54.638Z,23.58
2023-02-19T09:08:21.611Z,20.35
2023-02-19T09:11:01.520Z,18.77
2023-02-19T09:13:28.648Z,16.13
2023-02-19T09:15:57.199Z,18.67
2023-02-19T09:18:25.341Z,21.02
2023-02-19T09:20:52.710Z,21.38
2023-02-19T09:23:20.174Z,20.27
2023-02-19T09:25:47.420Z,18.45
2023-02-19T09:28:14.471Z,22.23
2023-02-19T09:30:41.575Z,19.42
2023-02-19T09:33:09.258Z,20.05
2023-02-19T09:35:39.582Z,16.63
2023-02-19T09:38:07.052Z,19.40
2023-02-19T09:40:36.243Z,15.90
2023-02-19T09:43:07.889Z,14.20
2023-02-19T09:45:36.069Z,18.60
2023-02-19T09:48:06.216Z,16.63
2023-02-19T09:58:21.530Z,16.15
2023-02-19T10:03:12.667Z,13.73
2023-02-19T10:05:41.046Z,15.30
2023-02-19T10:08:13.388Z,13.52
2023-02-19T10:10:41.550Z,13.02
2023-02-19T10:13:22.273Z,16.25
2023-02-19T10:18:15.927Z,13.85
2023-02-19T10:20:43.104Z,11.75
2023-02-19T10:23:14.412Z,10.98
2023-02-19T10:25:54.274Z,13.73
2023-02-19T10:28:25.389Z,15.68
2023-02-19T10:30:55.473Z,15.00
2023-02-19T10:33:23.581Z,13.68
2023-02-19T10:35:54.372Z,19.85
2023-02-19T10:38:30.614Z,13.68
2023-02-19T10:41:05.197Z,13.32
2023-02-19T10:43:37.157Z,12.27
2023-02-19T10:46:16.845Z,10.25
2023-02-19T10:48:54.003Z,12.82
2023-02-19T10:53:48.958Z,10.23
2023-02-19T10:58:34.503Z,10.98
2023-02-19T11:03:25.035Z,7.70
2023-02-19T11:08:25.027Z,7.28
2023-02-19T11:10:52.183Z,8.10
2023-02-19T11:13:30.999Z,10.88
2023-02-19T11:15:59.166Z,6.90
2023-02-19T11:18:29.523Z,9.15
2023-02-19T11:21:02.270Z,7.30
2023-02-19T11:23:30.282Z,9.73
2023-02-19T11:26:03.760Z,9.18
2023-02-19T11:28:35.809Z,11.07
2023-02-19T11:31:29.612Z,12.25
2023-02-19T11:34:00.068Z,13.68
2023-02-19T11:36:30.647Z,12.48
2023-02-19T11:39:02.141Z,13.55
2023-02-19T11:42:00.200Z,13.70
2023-02-19T11:44:39.797Z,16.80
2023-02-19T11:47:25.321Z,16.17
2023-02-19T11:50:21.769Z,16.92
2023-02-19T11:53:13.402Z,16.83
2023-02-19T11:56:04.784Z,13.75
2023-02-19T11:58:59.484Z,17.25
2023-02-19T12:01:47.011Z,16.60
2023-02-19T12:04:35.290Z,12.50
2023-02-19T12:07:11.490Z,18.20
2023-02-19T12:10:04.019Z,14.95
2023-02-19T12:12:50.425Z,15.95
2023-02-19T12:15:41.209Z,12.98
2023-02-19T12:18:14.103Z,13.98
2023-02-19T12:20:53.521Z,14.40
2023-02-19T12:23:39.208Z,18.77
2023-02-19T12:26:30.397Z,17.10
2023-02-19T12:29:21.082Z,14.23
2023-02-19T12:31:56.339Z,13.00
2023-02-19T12:34:41.723Z,15.30
2023-02-19T12:37:15.389Z,11.95
2023-02-19T12:40:03.698Z,12.30
2023-02-19T12:42:36.389Z,12.93
2023-02-19T12:45:38.985Z,15.75
2023-02-19T12:48:20.587Z,15.68
2023-02-19T12:50:52.098Z,11.25
2023-02-19T12:53:34.711Z,13.10
2023-02-19T12:56:06.681Z,11.85
2023-02-19T12:58:56.081Z,14.57
2023-02-19T13:01:28.290Z,14.82
2023-02-19T13:04:18.604Z,13.10
2023-02-19T13:06:56.565Z,12.60
2023-02-19T13:09:40.011Z,14.90
2023-02-19T13:12:35.040Z,11.50
2023-02-19T13:15:07.435Z,10.98
2023-02-19T13:17:55.267Z,12.18
2023-02-19T13:20:35.285Z,15.90
2023-02-19T13:23:38.654Z,17.13
2023-02-19T13:26:21.668Z,13.98
2023-02-19T13:29:02.979Z,13.95
2023-02-19T13:34:37.212Z,13.18
2023-02-19T13:37:05.399Z,25.83
2023-02-19T13:39:32.515Z,12.25
2023-02-19T13:41:59.950Z,13.80
2023-02-19T13:44:29.595Z,14.15
2023-02-19T13:46:57.107Z,14.75
2023-02-19T13:49:29.905Z,19.45
2023-02-19T13:56:36.217Z,22.40
2023-02-19T14:01:51.865Z,14.65
2023-02-19T14:07:04.516Z,17.55
2023-02-19T14:09:37.750Z,14.77
2023-02-19T14:12:04.897Z,14.82
2023-02-19T14:14:39.545Z,12.23
2023-02-19T14:17:09.420Z,14.73
2023-02-19T14:19:42.417Z,14.52
2023-02-19T14:22:46.634Z,12.82
2023-02-19T14:27:29.094Z,20.38
2023-02-19T14:29:56.414Z,15.27
2023-02-19T14:32:25.221Z,13.80
2023-02-19T14:34:53.043Z,16.38
2023-02-19T14:37:22.431Z,14.27
2023-02-19T14:44:42.193Z,14.68
2023-02-19T14:47:19.509Z,15.60
2023-02-19T14:50:15.170Z,20.50
2023-02-19T14:52:49.370Z,13.07
2023-02-19T14:55:33.920Z,13.38
2023-02-19T14:58:12.153Z,15.98
2023-02-19T15:00:41.627Z,14.30
2023-02-19T15:05:26.714Z,15.73
2023-02-19T15:07:56.657Z,18.80
2023-02-19T15:12:46.339Z,14.35
2023-02-19T15:15:22.101Z,15.20
2023-02-19T15:17:50.153Z,23.98
2023-02-19T15:20:20.908Z,19.80
2023-02-19T15:22:48.171Z,21.70
2023-02-19T15:25:21.593Z,23.55
2023-02-19T15:27:48.976Z,15.60
2023-02-19T15:30:31.337Z,18.75
2023-02-19T15:33:00.305Z,17.20
2023-02-19T15:35:28.873Z,17.35
2023-02-19T15:37:56.475Z,18.58
2023-02-19T15:40:31.536Z,17.13
2023-02-19T15:43:00.586Z,17.25
2023-02-19T16:34:41.578Z,24.83
2023-02-19T16:39:24.422Z,19.95
2023-02-19T16:44:33.487Z,20.30
2023-02-19T16:47:14.900Z,22.15
2023-02-19T16:52:14.635Z,18.35
2023-02-19T16:54:41.833Z,16.85
2023-02-19T16:57:08.798Z,20.17
2023-02-19T16:59:35.866Z,16.67
2023-02-19T17:02:09.066Z,19.70
2023-02-19T17:04:36.146Z,22.45
2023-02-19T17:07:03.433Z,21.95
2023-02-19T17:09:30.468Z,18.75
2023-02-19T17:11:57.538Z,20.15
2023-02-19T17:14:24.892Z,19.98
2023-02-19T17:16:51.945Z,23.05
2023-02-19T17:19:19.843Z,21.48
2023-02-19T17:21:47.532Z,21.38
2023-02-19T17:24:15.159Z,28.00
2023-02-19T17:26:42.424Z,21.63
2023-02-19T17:29:15.086Z,21.63
2023-02-19T17:31:42.202Z,25.17
2023-02-19T17:34:09.270Z,21.30
2023-02-19T17:36:38.004Z,22.73
2023-02-19T17:39:07.255Z,21.05
2023-02-19T17:41:34.199Z,30.80
2023-02-19T17:44:01.343Z,22.75
2023-02-19T17:46:28.321Z,21.98
2023-02-19T17:48:56.045Z,18.80
2023-02-19T17:51:23.148Z,22.15
2023-02-19T17:53:50.235Z,22.60
2023-02-19T17:56:19.899Z,23.40
2023-02-19T17:58:47.154Z,22.80
2023-02-19T18:01:14.940Z,28.83
2023-02-19T18:03:43.622Z,22.98
2023-02-19T18:06:11.347Z,44.20
2023-02-19T18:08:38.768Z,85.88
2023-02-19T18:11:07.838Z,56.17
2023-02-19T18:13:34.903Z,32.22
2023-02-19T18:16:02.127Z,31.65
2023-02-19T18:18:30.314Z,27.83
2023-02-19T18:20:57.351Z,16.80
2023-02-19T18:23:24.369Z,15.85
2023-02-19T18:25:51.396Z,22.73
2023-02-19T18:28:18.388Z,23.75
2023-02-19T18:30:45.529Z,31.45
2023-02-19T18:33:13.390Z,35.85
2023-02-19T18:35:40.710Z,36.17
2023-02-19T18:38:07.970Z,30.52
2023-02-19T18:40:35.032Z,33.83
2023-02-19T18:43:02.121Z,38.17
2023-02-19T18:45:29.765Z,39.55
2023-02-19T18:47:56.942Z,45.72
2023-02-19T18:50:24.042Z,37.17
2023-02-19T18:52:51.692Z,38.50
2023-02-19T18:55:19.010Z,30.98
2023-02-19T18:57:47.056Z,30.90
2023-02-19T19:00:19.612Z,28.25
2023-02-19T19:02:49.791Z,28.63
2023-02-19T19:05:23.290Z,47.80
2023-02-19T19:07:52.049Z,48.15
2023-02-19T19:10:19.622Z,33.38
2023-02-19T19:12:46.942Z,26.55
2023-02-19T19:15:17.990Z,32.17
2023-02-19T19:17:45.754Z,29.77
2023-02-19T19:20:13.473Z,35.10
2023-02-19T19:22:40.914Z,29.65
2023-02-19T19:25:08.957Z,27.83
2023-02-19T19:27:36.098Z,30.08
2023-02-19T19:30:06.575Z,32.70
2023-02-19T19:32:33.683Z,27.13
2023-02-19T19:35:02.594Z,25.05
2023-02-19T19:37:29.799Z,25.88
2023-02-19T19:39:57.369Z,27.73
2023-02-19T19:42:24.576Z,29.20
2023-02-19T19:44:51.677Z,27.65
2023-02-19T19:47:19.254Z,28.50
2023-02-19T19:49:47.442Z,26.95
2023-02-19T19:52:15.163Z,22.27
2023-02-19T19:54:43.214Z,25.77
2023-02-19T19:57:11.043Z,27.92
2023-02-19T19:59:39.452Z,24.58
2023-02-19T20:02:07.989Z,31.20
2023-02-19T20:04:35.048Z,30.23
2023-02-19T20:07:02.493Z,49.67
2023-02-19T20:09:29.681Z,33.05
2023-02-19T20:11:57.189Z,38.65
2023-02-19T20:14:25.684Z,35.40
2023-02-19T20:16:55.034Z,58.78
2023-02-19T20:19:22.697Z,50.58
2023-02-19T20:21:52.596Z,38.20
2023-02-19T20:24:28.549Z,31.95
2023-02-19T20:27:02.008Z,28.85
2023-02-19T20:29:31.221Z,39.50
2023-02-19T20:34:27.777Z,35.88
2023-02-19T20:36:54.855Z,34.22
2023-02-19T20:39:22.589Z,35.85
2023-02-19T20:41:52.337Z,34.25
2023-02-19T20:44:20.644Z,33.70
2023-02-19T20:46:49.913Z,38.90
2023-02-19T20:49:20.398Z,33.58
2023-02-19T20:51:48.327Z,40.85
2023-02-19T20:54:17.685Z,31.42
2023-02-19T20:56:49.403Z,32.85
2023-02-19T20:59:17.778Z,40.03
2023-02-19T21:01:45.271Z,29.33
2023-02-19T21:04:13.292Z,29.48
2023-02-19T21:06:40.581Z,27.38
2023-02-19T21:09:08.272Z,29.05
2023-02-19T21:11:35.719Z,28.08
2023-02-19T21:14:04.333Z,26.00
2023-02-19T21:16:33.023Z,31.83
2023-02-19T21:19:01.347Z,29.65
2023-02-19T21:21:31.315Z,25.20
2023-02-19T21:24:00.138Z,29.52
2023-02-19T21:26:38.810Z,26.92
2023-02-19T21:29:07.559Z,23.58
2023-02-19T21:31:43.236Z,26.42
2023-02-19T21:34:14.011Z,29.42
2023-02-19T21:36:42.465Z,27.52
2023-02-19T21:39:12.288Z,25.48
2023-02-19T21:41:39.324Z,28.15
2023-02-19T21:44:06.385Z,26.15
2023-02-19T21:46:33.754Z,29.15
2023-02-19T21:49:01.482Z,22.98
2023-02-19T21:51:34.218Z,25.75
2023-02-19T21:54:02.153Z,28.38
2023-02-19T21:56:31.852Z,28.75
2023-02-19T21:58:59.327Z,31.70
2023-02-19T22:01:32.348Z,29.27
2023-02-19T22:03:59.827Z,31.60
2023-02-19T22:06:29.271Z,29.80
2023-02-19T22:08:57.137Z,32.35
2023-02-19T22:11:24.364Z,30.60
2023-02-19T22:13:51.823Z,41.03
2023-02-19T22:16:19.195Z,30.10
2023-02-19T22:18:51.454Z,30.13
2023-02-19T22:21:19.938Z,33.33
2023-02-19T22:23:48.650Z,28.52
2023-02-19T22:26:27.875Z,27.80
2023-02-19T22:28:55.648Z,27.65
2023-02-19T22:31:24.932Z,20.90
2023-02-19T22:33:52.842Z,33.83
2023-02-19T22:36:22.375Z,34.10
2023-02-19T22:38:49.808Z,33.70
2023-02-19T22:41:18.550Z,27.42
2023-02-19T22:43:45.972Z,27.95
2023-02-19T22:46:22.435Z,28.17
2023-02-19T22:48:50.746Z,26.38
2023-02-19T22:51:20.765Z,23.05
2023-02-19T22:53:53.985Z,24.42
2023-02-19T22:56:23.268Z,24.38
2023-02-19T22:58:51.377Z,22.58
2023-02-19T23:01:18.737Z,26.55
2023-02-19T23:03:50.879Z,28.17
2023-02-19T23:06:22.628Z,24.63
2023-02-19T23:08:49.826Z,22.52
2023-02-19T23:11:25.657Z,23.63
2023-02-19T23:13:52.844Z,23.08
2023-02-19T23:16:20.153Z,24.42
2023-02-19T23:18:47.530Z,26.02
2023-02-19T23:21:15.263Z,25.88
2023-02-19T23:23:43.436Z,29.15
2023-02-19T23:26:12.402Z,22.85
2023-02-19T23:31:07.898Z,18.75
2023-02-19T23:33:35.488Z,21.50
2023-02-19T23:36:02.961Z,15.57
2023-02-19T23:38:30.077Z,22.98
2023-02-19T23:40:57.222Z,15.63
2023-02-19T23:43:24.366Z,14.23
2023-02-19T23:45:51.638Z,15.57
2023-02-19T23:48:18.866Z,15.93
2023-02-19T23:50:46.132Z,14.45
2023-02-19T23:53:13.334Z,14.25
2023-02-19T23:55:40.917Z,13.98
2023-02-19T23:58:08.051Z,16.23
